sensor_id;sensor_type;location;lat;lon;timestamp;temperature;humidity
67870;DHT22;54673;52.262;6.830;2023-05-17T00:01:41;21.60;42.60
67870;DHT22;54673;52.262;6.830;2023-05-17T00:04:07;21.60;42.60
67870;DHT22;54673;52.262;6.830;2023-05-17T00:06:32;21.60;42.60
67870;DHT22;54673;52.262;6.830;2023-05-17T00:08:59;21.60;42.60
67870;DHT22;54673;52.262;6.830;2023-05-17T00:11:24;21.60;42.60
67870;DHT22;54673;52.262;6.830;2023-05-17T00:13:50;21.60;42.60
67870;DHT22;54673;52.262;6.830;2023-05-17T00:16:16;21.60;42.60
67870;DHT22;54673;52.262;6.830;2023-05-17T00:18:41;21.30;42.40
67870;DHT22;54673;52.262;6.830;2023-05-17T00:21:07;21.60;42.50
67870;DHT22;54673;52.262;6.830;2023-05-17T00:23:32;21.60;42.60
67870;DHT22;54673;52.262;6.830;2023-05-17T00:25:58;21.60;42.60
67870;DHT22;54673;52.262;6.830;2023-05-17T00:28:23;21.60;43.50
67870;DHT22;54673;52.262;6.830;2023-05-17T00:30:49;21.60;42.60
67870;DHT22;54673;52.262;6.830;2023-05-17T00:33:15;21.60;42.60
67870;DHT22;54673;52.262;6.830;2023-05-17T00:35:40;21.50;42.50
67870;DHT22;54673;52.262;6.830;2023-05-17T00:38:06;21.50;42.50
67870;DHT22;54673;52.262;6.830;2023-05-17T00:40:31;21.50;42.50
67870;DHT22;54673;52.262;6.830;2023-05-17T00:42:57;21.50;42.60
67870;DHT22;54673;52.262;6.830;2023-05-17T00:45:23;21.50;42.60
67870;DHT22;54673;52.262;6.830;2023-05-17T00:47:48;21.50;42.50
67870;DHT22;54673;52.262;6.830;2023-05-17T00:50:14;21.50;42.50
67870;DHT22;54673;52.262;6.830;2023-05-17T00:52:39;21.50;42.50
67870;DHT22;54673;52.262;6.830;2023-05-17T00:55:05;21.50;42.50
67870;DHT22;54673;52.262;6.830;2023-05-17T00:57:31;21.50;42.50
67870;DHT22;54673;52.262;6.830;2023-05-17T00:59:57;21.50;42.60
67870;DHT22;54673;52.262;6.830;2023-05-17T01:02:23;21.50;42.50
67870;DHT22;54673;52.262;6.830;2023-05-17T01:04:49;21.50;42.50
67870;DHT22;54673;52.262;6.830;2023-05-17T01:07:15;21.50;42.60
67870;DHT22;54673;52.262;6.830;2023-05-17T01:09:42;21.50;42.60
67870;DHT22;54673;52.262;6.830;2023-05-17T01:15:24;21.90;42.80
67870;DHT22;54673;52.262;6.830;2023-05-17T01:18:11;21.50;42.60
67870;DHT22;54673;52.262;6.830;2023-05-17T01:20:43;21.50;42.60
67870;DHT22;54673;52.262;6.830;2023-05-17T01:28:40;21.50;42.60
67870;DHT22;54673;52.262;6.830;2023-05-17T01:31:08;21.50;42.60
67870;DHT22;54673;52.262;6.830;2023-05-17T01:33:35;21.50;42.60
67870;DHT22;54673;52.262;6.830;2023-05-17T01:36:00;21.50;42.60
67870;DHT22;54673;52.262;6.830;2023-05-17T01:38:26;21.50;42.60
67870;DHT22;54673;52.262;6.830;2023-05-17T01:41:00;21.50;42.60
67870;DHT22;54673;52.262;6.830;2023-05-17T01:43:47;21.50;42.60
67870;DHT22;54673;52.262;6.830;2023-05-17T01:46:25;22.00;42.90
67870;DHT22;54673;52.262;6.830;2023-05-17T01:49:05;21.50;42.60
67870;DHT22;54673;52.262;6.830;2023-05-17T01:51:38;22.30;43.10
67870;DHT22;54673;52.262;6.830;2023-05-17T01:54:08;21.50;42.70
67870;DHT22;54673;52.262;6.830;2023-05-17T01:56:40;21.40;42.60
67870;DHT22;54673;52.262;6.830;2023-05-17T01:59:09;21.40;42.60
67870;DHT22;54673;52.262;6.830;2023-05-17T02:01:36;21.40;42.50
67870;DHT22;54673;52.262;6.830;2023-05-17T02:04:03;21.50;42.60
67870;DHT22;54673;52.262;6.830;2023-05-17T02:06:29;21.40;42.60
67870;DHT22;54673;52.262;6.830;2023-05-17T02:08:55;21.50;42.60
67870;DHT22;54673;52.262;6.830;2023-05-17T02:11:22;21.40;42.50
67870;DHT22;54673;52.262;6.830;2023-05-17T02:13:48;21.40;42.50
67870;DHT22;54673;52.262;6.830;2023-05-17T02:16:13;21.40;42.60
67870;DHT22;54673;52.262;6.830;2023-05-17T02:18:39;21.40;42.50
67870;DHT22;54673;52.262;6.830;2023-05-17T02:21:05;21.40;42.50
67870;DHT22;54673;52.262;6.830;2023-05-17T02:23:31;21.40;42.50
67870;DHT22;54673;52.262;6.830;2023-05-17T02:25:56;21.40;42.60
67870;DHT22;54673;52.262;6.830;2023-05-17T02:28:22;21.40;42.60
67870;DHT22;54673;52.262;6.830;2023-05-17T02:30:47;21.40;42.60
67870;DHT22;54673;52.262;6.830;2023-05-17T02:33:13;21.40;42.60
67870;DHT22;54673;52.262;6.830;2023-05-17T02:35:38;21.40;42.60
67870;DHT22;54673;52.262;6.830;2023-05-17T02:38:04;21.40;42.60
67870;DHT22;54673;52.262;6.830;2023-05-17T02:40:30;21.40;42.60
67870;DHT22;54673;52.262;6.830;2023-05-17T02:42:55;21.40;43.50
67870;DHT22;54673;52.262;6.830;2023-05-17T02:45:21;21.40;42.60
67870;DHT22;54673;52.262;6.830;2023-05-17T02:47:46;21.40;42.60
67870;DHT22;54673;52.262;6.830;2023-05-17T02:50:12;21.40;42.60
67870;DHT22;54673;52.262;6.830;2023-05-17T02:52:37;21.40;42.60
67870;DHT22;54673;52.262;6.830;2023-05-17T02:55:03;21.40;43.50
67870;DHT22;54673;52.262;6.830;2023-05-17T02:57:29;21.40;42.60
67870;DHT22;54673;52.262;6.830;2023-05-17T02:59:54;21.40;42.60
67870;DHT22;54673;52.262;6.830;2023-05-17T03:02:20;21.40;42.50
67870;DHT22;54673;52.262;6.830;2023-05-17T03:04:45;21.40;42.60
67870;DHT22;54673;52.262;6.830;2023-05-17T03:07:11;21.40;42.60
67870;DHT22;54673;52.262;6.830;2023-05-17T03:09:37;21.40;42.60
67870;DHT22;54673;52.262;6.830;2023-05-17T03:12:02;21.40;42.60
67870;DHT22;54673;52.262;6.830;2023-05-17T03:14:28;21.40;42.60
67870;DHT22;54673;52.262;6.830;2023-05-17T03:16:54;21.40;42.60
67870;DHT22;54673;52.262;6.830;2023-05-17T03:19:19;21.40;42.60
67870;DHT22;54673;52.262;6.830;2023-05-17T03:21:45;21.30;42.50
67870;DHT22;54673;52.262;6.830;2023-05-17T03:24:10;21.40;42.60
67870;DHT22;54673;52.262;6.830;2023-05-17T03:26:36;21.40;42.60
67870;DHT22;54673;52.262;6.830;2023-05-17T03:29:01;21.30;42.60
67870;DHT22;54673;52.262;6.830;2023-05-17T03:31:27;21.40;42.60
67870;DHT22;54673;52.262;6.830;2023-05-17T03:33:52;21.30;42.60
67870;DHT22;54673;52.262;6.830;2023-05-17T03:36:18;21.40;42.70
67870;DHT22;54673;52.262;6.830;2023-05-17T03:38:44;21.30;42.60
67870;DHT22;54673;52.262;6.830;2023-05-17T03:41:10;21.20;42.60
67870;DHT22;54673;52.262;6.830;2023-05-17T03:43:36;21.30;42.60
67870;DHT22;54673;52.262;6.830;2023-05-17T03:46:01;21.30;42.60
67870;DHT22;54673;52.262;6.830;2023-05-17T03:48:27;21.30;42.70
67870;DHT22;54673;52.262;6.830;2023-05-17T03:50:52;21.30;42.60
67870;DHT22;54673;52.262;6.830;2023-05-17T03:53:18;21.30;42.70
67870;DHT22;54673;52.262;6.830;2023-05-17T03:55:43;21.30;42.60
67870;DHT22;54673;52.262;6.830;2023-05-17T03:58:09;21.30;42.70
67870;DHT22;54673;52.262;6.830;2023-05-17T04:00:35;21.30;42.70
67870;DHT22;54673;52.262;6.830;2023-05-17T04:03:01;21.30;42.70
67870;DHT22;54673;52.262;6.830;2023-05-17T04:05:27;21.30;42.60
67870;DHT22;54673;52.262;6.830;2023-05-17T04:07:53;21.30;42.70
67870;DHT22;54673;52.262;6.830;2023-05-17T04:10:18;21.30;42.70
67870;DHT22;54673;52.262;6.830;2023-05-17T04:12:44;21.30;42.70
67870;DHT22;54673;52.262;6.830;2023-05-17T04:15:10;21.30;42.70
67870;DHT22;54673;52.262;6.830;2023-05-17T04:17:35;21.20;42.60
67870;DHT22;54673;52.262;6.830;2023-05-17T04:20:02;21.30;42.70
67870;DHT22;54673;52.262;6.830;2023-05-17T04:22:29;21.20;42.60
67870;DHT22;54673;52.262;6.830;2023-05-17T04:24:54;21.20;42.60
67870;DHT22;54673;52.262;6.830;2023-05-17T04:27:20;21.20;42.60
67870;DHT22;54673;52.262;6.830;2023-05-17T04:29:48;21.20;42.60
67870;DHT22;54673;52.262;6.830;2023-05-17T04:32:14;21.20;42.60
67870;DHT22;54673;52.262;6.830;2023-05-17T04:34:40;21.20;42.60
67870;DHT22;54673;52.262;6.830;2023-05-17T04:37:07;21.20;42.60
67870;DHT22;54673;52.262;6.830;2023-05-17T04:39:32;21.20;42.60
67870;DHT22;54673;52.262;6.830;2023-05-17T04:41:58;21.20;42.60
67870;DHT22;54673;52.262;6.830;2023-05-17T04:44:24;21.20;42.50
67870;DHT22;54673;52.262;6.830;2023-05-17T04:46:49;21.20;42.50
67870;DHT22;54673;52.262;6.830;2023-05-17T04:49:15;21.20;42.60
67870;DHT22;54673;52.262;6.830;2023-05-17T04:51:41;21.20;42.60
67870;DHT22;54673;52.262;6.830;2023-05-17T04:54:06;21.20;42.60
67870;DHT22;54673;52.262;6.830;2023-05-17T04:56:34;21.20;42.60
67870;DHT22;54673;52.262;6.830;2023-05-17T04:59:01;21.20;42.60
67870;DHT22;54673;52.262;6.830;2023-05-17T05:01:27;21.20;42.60
67870;DHT22;54673;52.262;6.830;2023-05-17T05:03:55;21.20;42.50
67870;DHT22;54673;52.262;6.830;2023-05-17T05:06:21;21.20;42.60
67870;DHT22;54673;52.262;6.830;2023-05-17T05:08:47;21.20;42.60
67870;DHT22;54673;52.262;6.830;2023-05-17T05:11:13;21.20;42.50
67870;DHT22;54673;52.262;6.830;2023-05-17T05:13:38;21.20;42.50
67870;DHT22;54673;52.262;6.830;2023-05-17T05:16:06;21.20;42.50
67870;DHT22;54673;52.262;6.830;2023-05-17T05:18:32;21.20;42.60
67870;DHT22;54673;52.262;6.830;2023-05-17T05:20:58;21.20;42.50
67870;DHT22;54673;52.262;6.830;2023-05-17T05:23:24;21.10;42.40
67870;DHT22;54673;52.262;6.830;2023-05-17T05:25:49;21.20;42.50
67870;DHT22;54673;52.262;6.830;2023-05-17T05:28:15;21.20;42.60
67870;DHT22;54673;52.262;6.830;2023-05-17T05:30:40;21.10;42.50
67870;DHT22;54673;52.262;6.830;2023-05-17T05:33:06;21.10;42.50
67870;DHT22;54673;52.262;6.830;2023-05-17T05:35:31;21.20;42.50
67870;DHT22;54673;52.262;6.830;2023-05-17T05:37:57;21.20;42.50
67870;DHT22;54673;52.262;6.830;2023-05-17T05:40:23;21.20;42.50
67870;DHT22;54673;52.262;6.830;2023-05-17T05:42:49;21.10;42.40
67870;DHT22;54673;52.262;6.830;2023-05-17T05:45:14;21.10;42.50
67870;DHT22;54673;52.262;6.830;2023-05-17T05:47:40;21.10;42.40
67870;DHT22;54673;52.262;6.830;2023-05-17T05:50:06;21.10;42.40
67870;DHT22;54673;52.262;6.830;2023-05-17T05:52:32;21.10;42.40
67870;DHT22;54673;52.262;6.830;2023-05-17T05:54:58;21.10;42.40
67870;DHT22;54673;52.262;6.830;2023-05-17T05:57:24;21.10;42.40
67870;DHT22;54673;52.262;6.830;2023-05-17T05:59:49;21.00;42.30
67870;DHT22;54673;52.262;6.830;2023-05-17T06:02:15;21.10;42.40
67870;DHT22;54673;52.262;6.830;2023-05-17T06:04:41;21.10;42.40
67870;DHT22;54673;52.262;6.830;2023-05-17T06:07:07;21.10;42.40
67870;DHT22;54673;52.262;6.830;2023-05-17T06:09:33;21.10;42.40
67870;DHT22;54673;52.262;6.830;2023-05-17T06:11:58;21.10;42.40
67870;DHT22;54673;52.262;6.830;2023-05-17T06:14:25;21.10;42.40
67870;DHT22;54673;52.262;6.830;2023-05-17T06:16:51;21.10;42.40
67870;DHT22;54673;52.262;6.830;2023-05-17T06:19:16;21.10;42.50
67870;DHT22;54673;52.262;6.830;2023-05-17T06:21:42;21.10;42.40
67870;DHT22;54673;52.262;6.830;2023-05-17T06:24:08;21.10;42.50
67870;DHT22;54673;52.262;6.830;2023-05-17T06:26:34;21.10;42.40
67870;DHT22;54673;52.262;6.830;2023-05-17T06:28:59;21.10;42.40
67870;DHT22;54673;52.262;6.830;2023-05-17T06:31:25;21.10;42.40
67870;DHT22;54673;52.262;6.830;2023-05-17T06:33:50;21.10;42.50
67870;DHT22;54673;52.262;6.830;2023-05-17T06:36:16;21.10;42.40
67870;DHT22;54673;52.262;6.830;2023-05-17T06:38:41;21.10;42.50
67870;DHT22;54673;52.262;6.830;2023-05-17T06:41:07;21.10;42.40
67870;DHT22;54673;52.262;6.830;2023-05-17T06:43:33;21.10;42.30
67870;DHT22;54673;52.262;6.830;2023-05-17T06:45:59;21.10;42.40
67870;DHT22;54673;52.262;6.830;2023-05-17T06:48:24;21.10;42.40
67870;DHT22;54673;52.262;6.830;2023-05-17T06:50:50;21.10;42.30
67870;DHT22;54673;52.262;6.830;2023-05-17T06:53:16;21.10;42.30
67870;DHT22;54673;52.262;6.830;2023-05-17T06:55:41;21.10;42.30
67870;DHT22;54673;52.262;6.830;2023-05-17T06:58:07;21.10;42.40
67870;DHT22;54673;52.262;6.830;2023-05-17T07:00:33;21.10;42.40
67870;DHT22;54673;52.262;6.830;2023-05-17T07:02:59;21.10;42.40
67870;DHT22;54673;52.262;6.830;2023-05-17T07:05:24;21.10;42.40
67870;DHT22;54673;52.262;6.830;2023-05-17T07:07:50;21.10;42.40
67870;DHT22;54673;52.262;6.830;2023-05-17T07:10:16;21.00;42.40
67870;DHT22;54673;52.262;6.830;2023-05-17T07:12:41;21.10;42.50
67870;DHT22;54673;52.262;6.830;2023-05-17T07:15:07;21.10;42.40
67870;DHT22;54673;52.262;6.830;2023-05-17T07:17:33;21.10;42.30
67870;DHT22;54673;52.262;6.830;2023-05-17T07:19:59;21.10;42.40
67870;DHT22;54673;52.262;6.830;2023-05-17T07:22:24;21.00;42.40
67870;DHT22;54673;52.262;6.830;2023-05-17T07:24:50;21.10;42.50
67870;DHT22;54673;52.262;6.830;2023-05-17T07:27:15;21.00;43.20
67870;DHT22;54673;52.262;6.830;2023-05-17T07:29:41;21.10;42.30
67870;DHT22;54673;52.262;6.830;2023-05-17T07:32:07;21.10;42.30
67870;DHT22;54673;52.262;6.830;2023-05-17T07:34:34;21.10;42.30
67870;DHT22;54673;52.262;6.830;2023-05-17T07:37:00;21.10;42.30
67870;DHT22;54673;52.262;6.830;2023-05-17T07:39:25;21.10;42.20
67870;DHT22;54673;52.262;6.830;2023-05-17T07:41:51;21.10;42.30
67870;DHT22;54673;52.262;6.830;2023-05-17T07:44:16;21.10;42.30
67870;DHT22;54673;52.262;6.830;2023-05-17T07:46:42;21.10;42.30
67870;DHT22;54673;52.262;6.830;2023-05-17T07:49:07;21.10;42.30
67870;DHT22;54673;52.262;6.830;2023-05-17T07:51:33;21.00;42.20
67870;DHT22;54673;52.262;6.830;2023-05-17T07:53:59;21.10;42.30
67870;DHT22;54673;52.262;6.830;2023-05-17T07:56:27;21.10;42.20
67870;DHT22;54673;52.262;6.830;2023-05-17T07:58:54;21.00;42.20
67870;DHT22;54673;52.262;6.830;2023-05-17T08:01:19;21.00;42.20
67870;DHT22;54673;52.262;6.830;2023-05-17T08:03:45;21.10;42.20
67870;DHT22;54673;52.262;6.830;2023-05-17T08:06:16;21.00;42.10
67870;DHT22;54673;52.262;6.830;2023-05-17T08:08:42;21.00;42.10
67870;DHT22;54673;52.262;6.830;2023-05-17T08:11:09;21.10;42.20
67870;DHT22;54673;52.262;6.830;2023-05-17T08:13:35;21.10;42.20
67870;DHT22;54673;52.262;6.830;2023-05-17T08:16:00;21.00;42.10
67870;DHT22;54673;52.262;6.830;2023-05-17T08:18:30;21.10;42.10
67870;DHT22;54673;52.262;6.830;2023-05-17T08:20:56;21.10;42.20
67870;DHT22;54673;52.262;6.830;2023-05-17T08:23:21;21.10;42.10
67870;DHT22;54673;52.262;6.830;2023-05-17T08:25:47;21.10;42.10
67870;DHT22;54673;52.262;6.830;2023-05-17T08:28:13;21.10;42.10
67870;DHT22;54673;52.262;6.830;2023-05-17T08:30:38;21.10;42.10
67870;DHT22;54673;52.262;6.830;2023-05-17T08:33:04;21.00;42.10
67870;DHT22;54673;52.262;6.830;2023-05-17T08:35:29;21.10;42.20
67870;DHT22;54673;52.262;6.830;2023-05-17T08:37:56;21.10;42.10
67870;DHT22;54673;52.262;6.830;2023-05-17T08:40:21;21.10;42.10
67870;DHT22;54673;52.262;6.830;2023-05-17T08:42:49;21.10;42.10
67870;DHT22;54673;52.262;6.830;2023-05-17T08:45:14;21.10;42.10
67870;DHT22;54673;52.262;6.830;2023-05-17T08:47:42;21.10;42.10
67870;DHT22;54673;52.262;6.830;2023-05-17T08:50:08;21.10;42.10
67870;DHT22;54673;52.262;6.830;2023-05-17T08:52:36;21.10;42.10
67870;DHT22;54673;52.262;6.830;2023-05-17T08:55:02;21.20;42.20
67870;DHT22;54673;52.262;6.830;2023-05-17T08:57:29;21.10;42.00
67870;DHT22;54673;52.262;6.830;2023-05-17T08:59:57;21.10;42.00
67870;DHT22;54673;52.262;6.830;2023-05-17T09:02:24;21.10;42.10
67870;DHT22;54673;52.262;6.830;2023-05-17T09:04:50;21.10;42.10
67870;DHT22;54673;52.262;6.830;2023-05-17T09:07:23;21.10;42.00
67870;DHT22;54673;52.262;6.830;2023-05-17T09:09:52;21.10;42.00
67870;DHT22;54673;52.262;6.830;2023-05-17T09:12:21;21.10;42.00
67870;DHT22;54673;52.262;6.830;2023-05-17T09:14:47;21.10;41.90
67870;DHT22;54673;52.262;6.830;2023-05-17T09:17:15;21.10;42.00
67870;DHT22;54673;52.262;6.830;2023-05-17T09:19:45;21.10;42.00
67870;DHT22;54673;52.262;6.830;2023-05-17T09:22:17;21.10;41.90
67870;DHT22;54673;52.262;6.830;2023-05-17T09:24:43;21.10;41.90
67870;DHT22;54673;52.262;6.830;2023-05-17T09:27:14;21.10;41.90
67870;DHT22;54673;52.262;6.830;2023-05-17T09:29:43;21.10;41.80
67870;DHT22;54673;52.262;6.830;2023-05-17T09:32:16;21.10;41.70
67870;DHT22;54673;52.262;6.830;2023-05-17T09:34:44;21.10;41.70
67870;DHT22;54673;52.262;6.830;2023-05-17T09:37:12;21.20;41.80
67870;DHT22;54673;52.262;6.830;2023-05-17T09:39:39;21.10;41.80
67870;DHT22;54673;52.262;6.830;2023-05-17T09:42:04;21.20;42.80
67870;DHT22;54673;52.262;6.830;2023-05-17T09:44:30;21.20;42.00
67870;DHT22;54673;52.262;6.830;2023-05-17T09:46:56;21.10;41.80
67870;DHT22;54673;52.262;6.830;2023-05-17T09:49:26;21.20;42.10
67870;DHT22;54673;52.262;6.830;2023-05-17T09:51:52;21.20;42.00
67870;DHT22;54673;52.262;6.830;2023-05-17T09:54:18;21.20;42.00
67870;DHT22;54673;52.262;6.830;2023-05-17T09:56:43;21.20;41.90
67870;DHT22;54673;52.262;6.830;2023-05-17T09:59:13;21.20;41.90
67870;DHT22;54673;52.262;6.830;2023-05-17T10:01:40;21.20;41.90
67870;DHT22;54673;52.262;6.830;2023-05-17T10:04:08;21.10;42.70
67870;DHT22;54673;52.262;6.830;2023-05-17T10:06:37;21.10;41.80
67870;DHT22;54673;52.262;6.830;2023-05-17T10:09:05;21.10;42.70
67870;DHT22;54673;52.262;6.830;2023-05-17T10:11:31;21.10;41.70
67870;DHT22;54673;52.262;6.830;2023-05-17T10:14:18;21.20;41.80
67870;DHT22;54673;52.262;6.830;2023-05-17T10:16:48;21.20;41.70
67870;DHT22;54673;52.262;6.830;2023-05-17T10:19:13;21.20;41.80
67870;DHT22;54673;52.262;6.830;2023-05-17T10:21:40;21.20;41.80
67870;DHT22;54673;52.262;6.830;2023-05-17T10:24:07;21.10;41.70
67870;DHT22;54673;52.262;6.830;2023-05-17T10:26:34;21.10;41.70
67870;DHT22;54673;52.262;6.830;2023-05-17T10:29:01;21.10;42.00
67870;DHT22;54673;52.262;6.830;2023-05-17T10:31:32;21.20;41.70
67870;DHT22;54673;52.262;6.830;2023-05-17T10:34:02;21.10;41.70
67870;DHT22;54673;52.262;6.830;2023-05-17T10:36:27;21.10;41.70
67870;DHT22;54673;52.262;6.830;2023-05-17T10:38:54;21.20;41.70
67870;DHT22;54673;52.262;6.830;2023-05-17T10:41:26;21.10;41.70
67870;DHT22;54673;52.262;6.830;2023-05-17T10:43:53;21.20;41.70
67870;DHT22;54673;52.262;6.830;2023-05-17T10:46:20;21.20;41.70
67870;DHT22;54673;52.262;6.830;2023-05-17T10:48:51;21.20;41.70
67870;DHT22;54673;52.262;6.830;2023-05-17T10:51:43;21.20;41.70
67870;DHT22;54673;52.262;6.830;2023-05-17T10:54:11;21.20;41.70
67870;DHT22;54673;52.262;6.830;2023-05-17T10:56:46;21.20;41.70
67870;DHT22;54673;52.262;6.830;2023-05-17T10:59:25;21.20;41.70
67870;DHT22;54673;52.262;6.830;2023-05-17T11:02:12;21.20;41.80
67870;DHT22;54673;52.262;6.830;2023-05-17T11:04:38;21.20;41.70
67870;DHT22;54673;52.262;6.830;2023-05-17T11:07:20;21.20;41.80
67870;DHT22;54673;52.262;6.830;2023-05-17T11:10:02;21.20;41.70
67870;DHT22;54673;52.262;6.830;2023-05-17T11:12:35;21.20;41.80
67870;DHT22;54673;52.262;6.830;2023-05-17T11:15:06;21.20;41.90
67870;DHT22;54673;52.262;6.830;2023-05-17T11:17:46;21.20;42.00
67870;DHT22;54673;52.262;6.830;2023-05-17T11:25:20;21.20;41.90
67870;DHT22;54673;52.262;6.830;2023-05-17T11:27:48;21.20;41.80
67870;DHT22;54673;52.262;6.830;2023-05-17T11:30:30;21.20;42.60
67870;DHT22;54673;52.262;6.830;2023-05-17T11:33:04;21.20;41.80
67870;DHT22;54673;52.262;6.830;2023-05-17T11:35:36;21.20;41.80
67870;DHT22;54673;52.262;6.830;2023-05-17T11:38:19;21.20;42.10
67870;DHT22;54673;52.262;6.830;2023-05-17T11:40:52;21.20;42.20
67870;DHT22;54673;52.262;6.830;2023-05-17T11:43:25;21.70;42.50
67870;DHT22;54673;52.262;6.830;2023-05-17T11:45:56;21.20;42.20
67870;DHT22;54673;52.262;6.830;2023-05-17T11:48:24;21.20;42.30
67870;DHT22;54673;52.262;6.830;2023-05-17T11:50:52;21.30;42.40
67870;DHT22;54673;52.262;6.830;2023-05-17T11:53:18;21.20;42.40
67870;DHT22;54673;52.262;6.830;2023-05-17T11:55:46;21.20;42.00
67870;DHT22;54673;52.262;6.830;2023-05-17T11:58:16;21.30;41.80
67870;DHT22;54673;52.262;6.830;2023-05-17T12:00:42;21.20;41.70
67870;DHT22;54673;52.262;6.830;2023-05-17T12:03:27;21.20;41.70
67870;DHT22;54673;52.262;6.830;2023-05-17T12:06:14;21.20;41.60
67870;DHT22;54673;52.262;6.830;2023-05-17T12:08:45;21.20;41.60
67870;DHT22;54673;52.262;6.830;2023-05-17T12:11:15;21.20;41.40
67870;DHT22;54673;52.262;6.830;2023-05-17T12:13:41;21.20;41.40
67870;DHT22;54673;52.262;6.830;2023-05-17T12:16:14;21.20;41.40
67870;DHT22;54673;52.262;6.830;2023-05-17T12:18:42;21.20;41.50
67870;DHT22;54673;52.262;6.830;2023-05-17T12:21:09;21.20;41.30
67870;DHT22;54673;52.262;6.830;2023-05-17T12:23:39;21.20;41.30
67870;DHT22;54673;52.262;6.830;2023-05-17T12:26:12;21.20;41.10
67870;DHT22;54673;52.262;6.830;2023-05-17T12:28:52;21.30;40.70
67870;DHT22;54673;52.262;6.830;2023-05-17T12:31:24;21.20;40.10
67870;DHT22;54673;52.262;6.830;2023-05-17T12:33:51;21.30;39.80
67870;DHT22;54673;52.262;6.830;2023-05-17T12:36:17;21.20;39.70
67870;DHT22;54673;52.262;6.830;2023-05-17T12:38:43;21.20;39.70
67870;DHT22;54673;52.262;6.830;2023-05-17T12:41:12;21.20;39.60
67870;DHT22;54673;52.262;6.830;2023-05-17T12:43:38;21.20;40.40
67870;DHT22;54673;52.262;6.830;2023-05-17T12:46:10;21.20;39.60
67870;DHT22;54673;52.262;6.830;2023-05-17T12:48:37;21.20;39.80
67870;DHT22;54673;52.262;6.830;2023-05-17T12:51:12;21.20;40.00
67870;DHT22;54673;52.262;6.830;2023-05-17T12:53:39;21.20;40.10
67870;DHT22;54673;52.262;6.830;2023-05-17T12:56:06;21.30;40.30
67870;DHT22;54673;52.262;6.830;2023-05-17T12:58:32;21.20;40.40
67870;DHT22;54673;52.262;6.830;2023-05-17T13:00:59;21.20;40.50
67870;DHT22;54673;52.262;6.830;2023-05-17T13:03:25;21.20;40.70
67870;DHT22;54673;52.262;6.830;2023-05-17T13:06:05;21.20;40.80
67870;DHT22;54673;52.262;6.830;2023-05-17T13:08:32;21.20;40.90
67870;DHT22;54673;52.262;6.830;2023-05-17T13:11:13;21.30;41.00
67870;DHT22;54673;52.262;6.830;2023-05-17T13:13:40;21.20;41.10
67870;DHT22;54673;52.262;6.830;2023-05-17T13:16:06;21.30;41.20
67870;DHT22;54673;52.262;6.830;2023-05-17T13:18:49;21.30;41.30
67870;DHT22;54673;52.262;6.830;2023-05-17T13:21:16;21.30;41.40
67870;DHT22;54673;52.262;6.830;2023-05-17T13:23:49;21.30;41.40
67870;DHT22;54673;52.262;6.830;2023-05-17T13:26:15;21.30;41.50
67870;DHT22;54673;52.262;6.830;2023-05-17T13:28:41;21.30;41.60
67870;DHT22;54673;52.262;6.830;2023-05-17T13:31:07;21.30;41.60
67870;DHT22;54673;52.262;6.830;2023-05-17T13:33:32;21.30;41.70
67870;DHT22;54673;52.262;6.830;2023-05-17T13:35:58;21.30;41.70
67870;DHT22;54673;52.262;6.830;2023-05-17T13:38:23;21.30;41.70
67870;DHT22;54673;52.262;6.830;2023-05-17T13:40:49;21.30;41.80
67870;DHT22;54673;52.262;6.830;2023-05-17T13:43:15;21.30;41.80
67870;DHT22;54673;52.262;6.830;2023-05-17T13:45:41;21.30;41.80
67870;DHT22;54673;52.262;6.830;2023-05-17T13:48:07;21.40;41.90
67870;DHT22;54673;52.262;6.830;2023-05-17T13:50:32;21.40;41.90
67870;DHT22;54673;52.262;6.830;2023-05-17T13:52:59;21.40;41.80
67870;DHT22;54673;52.262;6.830;2023-05-17T13:55:26;21.40;41.80
67870;DHT22;54673;52.262;6.830;2023-05-17T13:57:52;21.40;42.80
67870;DHT22;54673;52.262;6.830;2023-05-17T14:00:18;21.40;41.90
67870;DHT22;54673;52.262;6.830;2023-05-17T14:02:44;21.40;41.90
67870;DHT22;54673;52.262;6.830;2023-05-17T14:05:09;21.40;42.00
67870;DHT22;54673;52.262;6.830;2023-05-17T14:07:35;21.40;42.00
67870;DHT22;54673;52.262;6.830;2023-05-17T14:10:09;21.40;42.00
67870;DHT22;54673;52.262;6.830;2023-05-17T14:12:37;21.50;42.00
67870;DHT22;54673;52.262;6.830;2023-05-17T14:15:02;21.50;42.10
67870;DHT22;54673;52.262;6.830;2023-05-17T14:17:28;21.50;42.20
67870;DHT22;54673;52.262;6.830;2023-05-17T14:19:54;21.50;42.20
67870;DHT22;54673;52.262;6.830;2023-05-17T14:22:20;21.50;42.40
67870;DHT22;54673;52.262;6.830;2023-05-17T14:24:45;21.50;42.30
67870;DHT22;54673;52.262;6.830;2023-05-17T14:27:11;21.50;43.20
67870;DHT22;54673;52.262;6.830;2023-05-17T14:29:36;21.50;42.30
67870;DHT22;54673;52.262;6.830;2023-05-17T14:32:02;21.50;42.40
67870;DHT22;54673;52.262;6.830;2023-05-17T14:34:28;21.60;42.40
67870;DHT22;54673;52.262;6.830;2023-05-17T14:36:55;21.60;42.50
67870;DHT22;54673;52.262;6.830;2023-05-17T14:39:21;21.60;42.50
67870;DHT22;54673;52.262;6.830;2023-05-17T14:41:46;21.60;42.60
67870;DHT22;54673;52.262;6.830;2023-05-17T14:44:13;21.60;42.60
67870;DHT22;54673;52.262;6.830;2023-05-17T14:46:38;21.60;42.60
67870;DHT22;54673;52.262;6.830;2023-05-17T14:49:04;21.60;42.60
67870;DHT22;54673;52.262;6.830;2023-05-17T14:51:30;21.60;42.00
67870;DHT22;54673;52.262;6.830;2023-05-17T14:53:56;21.60;41.70
67870;DHT22;54673;52.262;6.830;2023-05-17T14:56:22;21.50;41.30
67870;DHT22;54673;52.262;6.830;2023-05-17T14:58:48;21.50;41.00
67870;DHT22;54673;52.262;6.830;2023-05-17T15:01:13;21.60;40.80
67870;DHT22;54673;52.262;6.830;2023-05-17T15:03:39;21.50;40.50
67870;DHT22;54673;52.262;6.830;2023-05-17T15:06:05;21.60;40.40
67870;DHT22;54673;52.262;6.830;2023-05-17T15:08:31;21.50;40.00
67870;DHT22;54673;52.262;6.830;2023-05-17T15:10:57;21.60;39.90
67870;DHT22;54673;52.262;6.830;2023-05-17T15:13:23;21.50;39.60
67870;DHT22;54673;52.262;6.830;2023-05-17T15:15:49;21.60;39.50
67870;DHT22;54673;52.262;6.830;2023-05-17T15:18:16;21.60;39.30
67870;DHT22;54673;52.262;6.830;2023-05-17T15:20:42;21.50;39.10
67870;DHT22;54673;52.262;6.830;2023-05-17T15:23:07;21.50;39.00
67870;DHT22;54673;52.262;6.830;2023-05-17T15:25:33;21.60;38.90
67870;DHT22;54673;52.262;6.830;2023-05-17T15:27:59;21.60;38.80
67870;DHT22;54673;52.262;6.830;2023-05-17T15:30:25;21.50;38.70
67870;DHT22;54673;52.262;6.830;2023-05-17T15:32:56;21.60;38.70
67870;DHT22;54673;52.262;6.830;2023-05-17T15:35:22;21.60;38.60
67870;DHT22;54673;52.262;6.830;2023-05-17T15:37:47;21.60;38.60
67870;DHT22;54673;52.262;6.830;2023-05-17T15:40:13;21.60;38.60
67870;DHT22;54673;52.262;6.830;2023-05-17T15:42:40;21.60;38.40
67870;DHT22;54673;52.262;6.830;2023-05-17T15:45:06;21.60;38.10